createdAt,value
2022-10-14T00:03:23.762Z,98880.50
2022-10-14T00:08:15.405Z,98866.06
2022-10-14T00:13:07.025Z,98859.56
2022-10-14T00:17:58.779Z,98862.59
2022-10-14T00:22:50.549Z,98863.44
2022-10-14T00:27:42.375Z,98848.25
2022-10-14T00:32:34.020Z,98843.66
2022-10-14T00:37:25.734Z,98845.78
2022-10-14T00:42:17.410Z,98847.13
2022-10-14T00:47:09.502Z,98842.69
2022-10-14T00:52:23.073Z,98838.00
2022-10-14T00:57:15.594Z,98812.81
2022-10-14T01:02:07.235Z,98805.63
2022-10-14T01:07:11.979Z,98798.72
2022-10-14T01:12:28.645Z,98808.69
2022-10-14T01:17:46.753Z,98787.13
2022-10-14T01:22:44.787Z,98789.41
2022-10-14T01:27:55.238Z,98780.84
2022-10-14T01:32:59.490Z,98789.16
2022-10-14T01:38:03.428Z,98774.69
2022-10-14T01:42:56.586Z,98764.00
2022-10-14T01:47:53.473Z,98759.31
2022-10-14T01:52:58.495Z,98745.41
2022-10-14T01:57:53.957Z,98740.13
2022-10-14T02:02:49.784Z,98728.88
2022-10-14T02:07:48.125Z,98726.16
2022-10-14T02:12:54.934Z,98710.69
2022-10-14T02:18:01.909Z,98710.69
2022-10-14T02:23:07.404Z,98699.81
2022-10-14T02:28:02.545Z,98691.13
2022-10-14T02:32:55.003Z,98689.72
2022-10-14T02:37:49.221Z,98678.78
2022-10-14T02:42:41.180Z,98667.81
2022-10-14T02:47:32.898Z,98675.31
2022-10-14T02:52:24.797Z,98682.28
2022-10-14T02:57:16.680Z,98680.06
2022-10-14T03:02:08.736Z,98671.38
2022-10-14T03:07:00.679Z,98655.34
2022-10-14T03:11:52.403Z,98646.84
2022-10-14T03:16:44.115Z,98648.75
2022-10-14T03:21:35.986Z,98649.00
2022-10-14T03:26:28.489Z,98646.03
2022-10-14T03:31:20.668Z,98627.63
2022-10-14T03:36:12.339Z,98622.78
2022-10-14T03:41:04.329Z,98619.09
2022-10-14T03:45:56.493Z,98604.19
2022-10-14T03:50:48.573Z,98590.97
2022-10-14T03:55:40.446Z,98580.13
2022-10-14T04:00:32.539Z,98580.19
2022-10-14T04:05:24.900Z,98585.69
2022-10-14T04:10:16.732Z,98593.09
2022-10-14T04:15:08.898Z,98590.97
2022-10-14T04:20:00.491Z,98577.72
2022-10-14T04:24:52.289Z,98585.91
2022-10-14T04:29:44.270Z,98579.75
2022-10-14T04:34:35.993Z,98576.28
2022-10-14T04:39:27.886Z,98580.91
2022-10-14T04:44:19.785Z,98561.66
2022-10-14T04:49:12.719Z,98568.72
2022-10-14T04:54:04.639Z,98570.09
2022-10-14T04:58:56.283Z,98558.19
2022-10-14T05:03:48.472Z,98557.69
2022-10-14T05:08:40.125Z,98559.06
2022-10-14T05:13:32.004Z,98555.84
2022-10-14T05:18:23.605Z,98540.13
2022-10-14T05:23:15.346Z,98542.34
2022-10-14T05:28:07.002Z,98536.66
2022-10-14T05:32:58.789Z,98530.47
2022-10-14T05:37:59.569Z,98536.47
2022-10-14T05:42:55.374Z,98534.59
2022-10-14T05:47:47.433Z,98535.69
2022-10-14T05:52:40.763Z,98524.59
2022-10-14T05:57:33.637Z,98530.03
2022-10-14T06:02:25.542Z,98520.00
2022-10-14T06:07:17.507Z,98531.41
2022-10-14T06:12:09.772Z,98511.00
2022-10-14T06:17:01.548Z,98513.72
2022-10-14T06:21:53.286Z,98519.16
2022-10-14T06:26:44.995Z,98508.03
2022-10-14T06:31:36.651Z,98510.50
2022-10-14T06:36:28.337Z,98501.84
2022-10-14T06:41:19.906Z,98519.53
2022-10-14T06:46:11.565Z,98522.00
2022-10-14T06:51:03.390Z,98519.28
2022-10-14T06:56:00.109Z,98520.69
2022-10-14T07:00:51.738Z,98521.44
2022-10-14T07:05:43.429Z,98521.44
2022-10-14T07:10:35.110Z,98523.28
2022-10-14T07:15:26.831Z,98512.91
2022-10-14T07:20:18.687Z,98527.00
2022-10-14T07:25:10.776Z,98524.78
2022-10-14T07:30:02.407Z,98517.16
2022-10-14T07:34:54.188Z,98525.28
2022-10-14T07:39:45.887Z,98529.41
2022-10-14T07:44:39.830Z,98516.31
2022-10-14T07:49:31.760Z,98518.59
2022-10-14T07:54:26.037Z,98525.06
2022-10-14T07:59:21.525Z,98549.97
2022-10-14T08:04:13.331Z,98550.69
2022-10-14T08:09:06.171Z,98551.19
2022-10-14T08:14:00.175Z,98546.63
2022-10-14T08:18:53.095Z,98547.00
2022-10-14T08:23:44.857Z,98547.47
2022-10-14T08:28:36.488Z,98543.78
2022-10-14T08:33:28.211Z,98543.56
2022-10-14T08:38:24.742Z,98556.41
2022-10-14T08:43:26.184Z,98547.88
2022-10-14T08:48:22.617Z,98541.47
2022-10-14T08:53:28.627Z,98544.72
2022-10-14T08:58:32.098Z,98542.88
2022-10-14T09:03:33.115Z,98534.75
2022-10-14T09:08:31.006Z,98529.16
2022-10-14T09:13:31.919Z,98521.91
2022-10-14T09:18:29.550Z,98522.31
2022-10-14T09:23:23.613Z,98503.38
2022-10-14T09:28:15.650Z,98502.78
2022-10-14T09:33:14.315Z,98503.75
2022-10-14T09:38:07.232Z,98497.44
2022-10-14T09:43:11.074Z,98494.75
2022-10-14T09:48:07.759Z,98496.78
2022-10-14T09:53:14.723Z,98503.09
2022-10-14T09:58:14.226Z,98496.41
2022-10-14T10:03:07.046Z,98496.63
2022-10-14T10:08:04.261Z,98504.75
2022-10-14T10:12:55.882Z,98496.59
2022-10-14T10:17:48.513Z,98482.44
2022-10-14T10:22:40.281Z,98479.31
2022-10-14T10:27:38.113Z,98481.56
2022-10-14T10:32:42.605Z,98475.63
2022-10-14T10:38:00.611Z,98480.41
2022-10-14T10:43:11.575Z,98478.91
2022-10-14T10:48:09.878Z,98475.75
2022-10-14T10:53:29.904Z,98469.84
2022-10-14T10:58:50.513Z,98461.41
2022-10-14T11:03:53.976Z,98457.69
2022-10-14T11:09:24.107Z,98461.34
2022-10-14T11:14:24.896Z,98460.78
2022-10-14T11:19:21.673Z,98461.59
2022-10-14T11:24:32.467Z,98472.66
2022-10-14T11:29:46.695Z,98465.56
2022-10-14T11:35:10.560Z,98450.69
2022-10-14T11:40:29.092Z,98457.06
2022-10-14T11:45:35.987Z,98455.84
2022-10-14T11:50:36.518Z,98453.78
2022-10-14T11:55:34.687Z,98451.47
2022-10-14T12:00:51.498Z,98438.41
2022-10-14T12:06:04.512Z,98428.13
2022-10-14T12:11:29.202Z,98419.25
2022-10-14T12:16:24.130Z,98406.88
2022-10-14T12:21:28.061Z,98410.72
2022-10-14T12:26:22.652Z,98405.16
2022-10-14T12:31:35.609Z,98405.03
2022-10-14T12:36:33.371Z,98413.41
2022-10-14T12:41:40.457Z,98412.16
2022-10-14T12:46:32.221Z,98411.47
2022-10-14T12:51:24.826Z,98405.63
2022-10-14T12:56:33.882Z,98410.72
2022-10-14T13:01:25.547Z,98411.59
2022-10-14T13:06:26.147Z,98399.47
2022-10-14T13:11:28.335Z,98403.16
2022-10-14T13:16:26.160Z,98389.31
2022-10-14T13:21:31.355Z,98378.94
2022-10-14T13:26:35.154Z,98370.22
2022-10-14T13:31:37.768Z,98366.59
2022-10-14T13:36:35.314Z,98367.59
2022-10-14T13:41:31.331Z,98357.69
2022-10-14T13:46:35.632Z,98367.25
2022-10-14T13:51:58.375Z,98360.19
2022-10-14T14:02:25.141Z,98349.53
2022-10-14T14:12:31.441Z,98339.50
2022-10-14T14:17:24.942Z,98344.78
2022-10-14T14:22:27.087Z,98336.59
2022-10-14T14:27:22.063Z,98335.00
2022-10-14T14:32:25.669Z,98333.09
2022-10-14T14:37:43.990Z,98327.94
2022-10-14T14:42:39.925Z,98326.06
2022-10-14T14:47:32.035Z,98329.41
2022-10-14T14:52:24.241Z,98326.22
2022-10-14T14:57:22.318Z,98336.16
2022-10-14T15:02:20.381Z,98340.06
2022-10-14T15:07:21.275Z,98342.91
2022-10-14T15:12:30.667Z,98330.34
2022-10-14T15:17:29.270Z,98338.34
2022-10-14T15:22:27.122Z,98336.25
2022-10-14T15:27:36.606Z,98340.97
2022-10-14T15:32:28.291Z,98348.72
2022-10-14T15:37:20.074Z,98339.75
2022-10-14T15:42:12.456Z,98336.81
2022-10-14T15:47:19.233Z,98335.44
2022-10-14T15:52:16.173Z,98341.47
2022-10-14T15:57:10.050Z,98322.91
2022-10-14T16:02:35.903Z,98317.44
2022-10-14T16:07:27.776Z,98311.47
2022-10-14T16:12:19.441Z,98314.19
2022-10-14T16:17:11.173Z,98316.63
2022-10-14T16:22:03.360Z,98292.13
2022-10-14T16:26:55.063Z,98302.25
2022-10-14T16:31:51.086Z,98288.38
2022-10-14T16:36:42.741Z,98296.03
2022-10-14T16:41:34.365Z,98272.06
2022-10-14T16:46:46.011Z,98283.84
2022-10-14T16:51:37.804Z,98276.19
2022-10-14T16:56:48.175Z,98271.31
2022-10-14T17:01:39.980Z,98275.69
2022-10-14T17:06:31.977Z,98262.06
2022-10-14T17:11:24.265Z,98271.09
2022-10-14T17:16:16.069Z,98268.09
2022-10-14T17:21:12.227Z,98273.56
2022-10-14T17:26:05.607Z,98283.97
2022-10-14T17:30:58.148Z,98278.81
2022-10-14T17:36:00.140Z,98293.28
2022-10-14T17:40:52.435Z,98297.09
2022-10-14T17:45:44.063Z,98290.28
2022-10-14T17:50:38.649Z,98292.47
2022-10-14T17:55:30.653Z,98285.13
2022-10-14T18:00:22.335Z,98297.09
2022-10-14T18:05:14.382Z,98291.66
2022-10-14T18:10:06.310Z,98286.75
2022-10-14T18:14:57.883Z,98277.19
2022-10-14T18:19:52.159Z,98274.22
2022-10-14T18:24:44.215Z,98278.03
2022-10-14T18:29:35.981Z,98286.72
2022-10-14T18:34:27.740Z,98291.63
2022-10-14T18:39:20.598Z,98289.16
2022-10-14T18:44:12.281Z,98286.72
2022-10-14T18:49:06.010Z,98293.50
2022-10-14T18:54:01.036Z,98289.69
2022-10-14T18:58:58.763Z,98289.69
2022-10-14T19:03:53.214Z,98289.41
2022-10-14T19:08:45.814Z,98282.59
2022-10-14T19:13:40.480Z,98280.09
2022-10-14T19:18:32.254Z,98282.28
2022-10-14T19:23:24.921Z,98286.09
2022-10-14T19:28:17.149Z,98276.53
2022-10-14T19:33:08.801Z,98273.25
2022-10-14T19:38:00.416Z,98276.25
2022-10-14T19:42:52.068Z,98260.97
2022-10-14T19:47:43.741Z,98263.13
2022-10-14T19:52:35.503Z,98248.69
2022-10-14T19:57:27.433Z,98253.31
2022-10-14T20:02:19.124Z,98248.66
2022-10-14T20:07:10.749Z,98252.97
2022-10-14T20:12:02.470Z,98239.63
2022-10-14T20:16:55.922Z,98233.34
2022-10-14T20:21:47.702Z,98241.22
2022-10-14T20:26:39.435Z,98224.34
2022-10-14T20:31:31.149Z,98228.13
2022-10-14T20:36:23.946Z,98228.06
2022-10-14T20:41:21.802Z,98225.88
2022-10-14T20:46:14.358Z,98225.78
2022-10-14T20:51:18.050Z,98217.03
2022-10-14T20:56:12.057Z,98211.31
2022-10-14T21:01:12.659Z,98204.50
2022-10-14T21:06:06.529Z,98212.88
2022-10-14T21:11:03.419Z,98215.81
2022-10-14T21:15:55.671Z,98205.47
2022-10-14T21:20:47.554Z,98195.13
2022-10-14T21:25:39.418Z,98186.09
2022-10-14T21:30:31.484Z,98189.56
2022-10-14T21:35:23.394Z,98188.41
2022-10-14T21:40:15.553Z,98177.19
2022-10-14T21:45:07.450Z,98175.50
2022-10-14T21:49:59.043Z,98180.09
2022-10-14T21:54:50.665Z,98169.19
2022-10-14T21:59:42.342Z,98162.66
2022-10-14T22:04:37.452Z,98166.69
2022-10-14T22:09:30.361Z,98154.72
2022-10-14T22:14:22.042Z,98157.75
2022-10-14T22:19:14.003Z,98138.75
2022-10-14T22:29:21.309Z,98120.88
2022-10-14T22:34:16.217Z,98120.06
2022-10-14T22:39:12.918Z,98115.44
2022-10-14T22:44:05.825Z,98084.78
2022-10-14T22:48:58.565Z,98076.91
2022-10-14T22:53:50.188Z,98093.13
2022-10-14T22:58:41.861Z,98072.78
2022-10-14T23:03:34.802Z,98058.38
2022-10-14T23:08:26.593Z,98058.13
2022-10-14T23:13:18.228Z,98050.00
2022-10-14T23:18:09.870Z,98048.41
2022-10-14T23:23:01.564Z,98034.03
2022-10-14T23:27:53.208Z,98032.13
2022-10-14T23:32:44.946Z,98023.72
2022-10-14T23:37:36.676Z,98023.97
2022-10-14T23:42:28.797Z,98007.44
2022-10-14T23:47:20.709Z,97999.31
2022-10-14T23:52:12.488Z,97988.97
2022-10-14T23:57:04.233Z,97993.88
